Donner Trail Elementary, Kingvale, California Weather observations

Data are for observation ending at time listed.
 Day   Time    Ave.   Ave.  Ave.  Vector   Max.   Stn.    Total    Solar   Ave.   Snow 
  of    of     Air    Rel.  Wind   Wind    Wind   Baro.  Precip.   Rad.    Soil   Depth
Year   Day     Temp.  Hum.  Speed  Dir.    Gust   Pres.                    Temp.       
2014   (PST)    F      %     mph   deg.    mph     mb.     in.     W/m2     F      in. 
---------------------------------------------------------------------------------------  
 264    6:20   44.9    73    0.4   301      0.4   817.3    0.00      13    999.0  212.2
 264    6:30   45.2    74    0.4   296      0.4   817.4    0.00      28    999.0  212.2
 264    6:40   45.4    73    0.4   274      0.4   817.5    0.00      35    999.0  212.2
 264    6:50   45.7    73    0.4   274      0.4   817.5    0.00      27    999.0  212.2
 264    7:00   45.9    74    0.4   274      0.4   817.6    0.00      11    999.0  212.2
 264    7:10   46.1    74    0.4   280      0.4   817.6    0.00      34    999.0  212.2
 264    7:20   46.2    76    0.4   284      0.4   817.6    0.00      60    999.0  212.2
 264    7:30   46.2    79    0.4   282      0.4   817.6    0.00      69    999.0  212.2
 264    7:40   46.0    80    0.4   282      0.4   817.7    0.00      61    999.0  212.2
 264    7:50   46.0    83    0.4   282      0.4   817.8    0.00      67    999.0  212.2
 264    8:00   46.0    84    0.4   282      0.4   817.8    0.00      69    999.0  212.2
 264    8:10   46.3    84    0.4   282      0.4   818.0    0.00      69    999.0  212.2
 264    8:20   46.7    86    0.4   282      0.4   818.0    0.00      69    999.0  212.2
 264    8:30   46.9    87    0.4   282      0.4   818.2    0.01      69    999.0  212.2
 264    8:40   47.0    88    0.4   300      0.4   818.3    0.00      69    999.0  212.2
 264    8:50   46.8    88    0.4    58      0.4   818.4    0.01      69    999.0  212.2
 264    9:00   46.9    90    0.4    58      0.4   818.5    0.00      69    999.0  212.2
 264    9:10   47.0    90    0.4    58      0.4   818.6    0.01      69    999.0  212.2
 264    9:20   47.2    90    0.4   298      0.4   818.7    0.00      69    999.0  212.2
 264    9:30   47.2    90    0.4   292      0.4   818.7    0.00      69    999.0  212.2
 264    9:40   47.5    90    0.4   256      0.4   818.7    0.00      69    999.0  212.2
 264    9:50   47.7    90    0.4   244      0.4   818.7    0.01      94    999.0  212.2
 264   10:00   47.7    90    0.4   269      0.4   818.7    0.00      70    999.0  212.2
 264   10:10   47.6    90    0.4   280      0.4   818.7    0.00      84    999.0  212.2
 264   10:20   47.8    90    0.4   289      0.4   818.6    0.00     138    999.0  212.2
 264   10:30   48.1    89    0.4   264      0.4   818.6    0.00     143    999.0  212.2
 264   10:40   48.3    86    0.4   288      0.4   818.5    0.00     183    999.0  212.2
 264   10:50   48.5    83    0.4   278      0.4   818.5    0.00     138    999.0  212.2
 264   11:00   48.4    83    0.4   300      0.4   818.5    0.00     138    999.0  212.2
 264   11:10   48.5    82    0.4   250      0.4   818.5    0.00     138    999.0  212.2
 264   11:20   48.8    82    0.4   243      0.4   818.5    0.00     138    999.0  212.2
 264   11:30   48.9    81    0.4   227      0.4   818.5    0.00     199    999.0  212.2
 264   11:40   49.7    77    0.4   255      0.4   818.5    0.00     226    999.0  212.2
 264   11:50   50.5    73    0.4   240      0.4   818.4    0.00     307    999.0  212.2
 264   12:00   51.0    68    0.4   224      0.4   818.2    0.00     282    999.0  212.2
 264   12:10   51.6    68    0.4   266      0.4   818.2    0.00     276    999.0  212.2
 264   12:20   52.4    66    0.4   245      0.4   818.2    0.00     227    999.0  212.2
 264   12:30   51.8    65    0.4    56      0.4   818.2    0.00     144    999.0  212.2
 264   12:40   51.0    68    0.4   342      0.4   818.2    0.00      69    999.0  212.2
 264   12:50   50.6    70    0.4    65      0.4   818.2    0.00      82    999.0  212.2
 264   13:00   51.0    70    0.4   128      0.4   818.2    0.00     180    999.0  212.2
 264   13:10   52.4    66    0.4   188      0.4   818.1    0.00     276    999.0  212.2
 264   13:20   53.7    64    0.4   278      0.4   818.2    0.00     303    999.0  212.2
 264   13:30   54.3    60    0.4   284      0.4   818.2    0.00     334    999.0  212.2
 264   13:40   54.5    58    0.4   203      0.4   818.2    0.00     316    999.0  212.2
 264   13:50   55.3    56    0.4   231      0.4   818.1    0.00     332    999.0  212.2
 264   14:00   55.1    54    0.4   359      0.4   818.1    0.00     276    999.0  212.2
 264   14:10   54.2    56    0.4   133      0.4   818.1    0.00     271    999.0  212.2
 264   14:20   55.3    49    0.4   130      0.4   818.0    0.00     468    999.0  212.2
 264   14:30   57.6    44    0.4    94      0.4   818.2    0.00     456    999.0  212.2
 264   14:40   56.7    43    0.4    75      0.4   818.2    0.00     404    999.0  212.2
 264   14:50   56.5    42    0.4    60      0.4   818.1    0.00     315    999.0  212.2
 264   15:00   55.7    46    0.4    12      0.4   818.0    0.00     205    999.0  212.2
 264   15:10   54.6    48    0.4    62      0.4   818.0    0.00     142    999.0  212.2
 264   15:20   54.2    49    0.4   350      0.4   818.0    0.00     138    999.0  212.2
 264   15:30   54.0    48    0.4    35      0.4   818.1    0.00     123    999.0  212.2
 264   15:40   53.7    48    0.4    25      0.4   818.1    0.00      72    999.0  212.2
 264   15:50   53.2    48    0.4   356      0.4   818.1    0.00      69    999.0  212.2
 264   16:00   53.1    50    0.4    56      0.4   818.1    0.00      69    999.0  212.2
 264   16:10   52.7    51    0.4    34      0.4   818.1    0.00      53    999.0  212.2
 264   16:20   52.2    53    0.4    75      0.4   818.0    0.00      47    999.0  212.2
 264   16:30   52.1    55    0.4    98      0.4   818.1    0.00      68    999.0  212.2
 264   16:40   52.2    58    0.4   103      0.4   818.1    0.00      69    999.0  212.2
 264   16:50   52.4    55    0.4    30      0.4   818.1    0.00      69    999.0  212.2
 264   17:00   52.3    53    0.4    88      0.4   818.1    0.00      69    999.0  212.2
 264   17:10   52.1    54    0.4   311      0.4   818.1    0.00      33    999.0  212.2
 264   17:20   51.4    56    0.4   318      0.4   818.1    0.00       0    999.0  212.2
 264   17:30   50.1    58    0.4   319      0.4   818.2    0.00       0    999.0  212.2
 264   17:40   48.4    62    0.4   319      0.4   818.3    0.00       0    999.0  212.2
 264   17:50   46.8    65    0.4   319      0.4   818.4    0.00       0    999.0  212.2
 264   18:00   45.8    69    0.4   319      0.4   818.5    0.00       0    999.0  212.2
 264   18:10   44.8    73    0.4   318      0.4   818.5    0.00       0    999.0  212.2
 264   18:20   43.8    75    0.4   318      0.4   818.5    0.00       0    999.0  212.2
 264   18:30   43.1    79    0.4   287      0.4   818.6    0.00       0    999.0  212.2
 264   18:40   42.5    80    0.4   286      0.4   818.7    0.00       0    999.0  212.2
 264   18:50   42.0    81    0.4   286      0.4   818.9    0.00       0    999.0  212.2
 264   19:00   41.5    82    0.4   281      0.4   818.9    0.00       0    999.0  212.2
 264   19:10   41.1    83    0.4   267      0.4   818.9    0.00       0    999.0  212.2
 264   19:20   40.6    82    0.4   263      0.4   818.9    0.00       0    999.0  212.2
 264   19:30   40.1    83    0.4   263      0.4   818.9    0.00       0    999.0  212.2
 264   19:40   39.6    84    0.4   263      0.4   819.0    0.00       0    999.0  212.2
 264   19:50   39.2    84    0.4   279      0.4   819.0    0.00       0    999.0  212.2
 264   20:00   38.7    86    0.4   302      0.4   819.1    0.00       0    999.0  212.2
 264   20:10   38.4    86    0.4   302      0.4   819.0    0.00       0    999.0  212.2
 264   20:20   38.1    87    0.4   293      0.4   819.1    0.00       0    999.0  212.2
 264   20:30   38.1    88    0.4   292      0.4   819.0    0.00       0    999.0  212.2
 264   20:40   38.0    88    0.4   264      0.4   819.0    0.00       0    999.0  212.2
 264   20:50   37.7    89    0.4   253      0.4   819.0    0.00       0    999.0  212.2
 264   21:00   37.5    89    0.4   284      0.4   819.1    0.00       0    999.0  212.2
 264   21:10   37.3    90    0.4   280      0.4   819.0    0.00       0    999.0  212.2
 264   21:20   37.0    90    0.4   310      0.4   819.0    0.00       0    999.0  212.2
 264   21:30   36.6    90    0.4   311      0.4   819.1    0.00       0    999.0  212.2
 264   21:40   36.3    91    0.4   308      0.4   819.1    0.00       0    999.0  212.2
 264   21:50   36.1    91    0.4   306      0.4   819.2    0.00       0    999.0  212.2
 264   22:00   35.6    91    0.4   309      0.4   819.3    0.00       0    999.0  212.2
 264   22:10   35.4    92    0.4   276      0.4   819.2    0.00       0    999.0  212.2
 264   22:20   35.4    92    0.4   284      0.4   819.2    0.00       0    999.0  212.2
 264   22:30   35.3    93    0.4   285      0.4   819.0    0.00       0    999.0  212.2
 264   22:40   35.2    93    0.4   266      0.4   819.1    0.00       0    999.0  212.2
 264   22:50   34.9    93    0.4   273      0.4   819.0    0.00       0    999.0  212.2
 264   23:00   34.8    93    0.4   274      0.4   819.0    0.00       0    999.0  212.2
 264   23:10   34.6    93    0.4   274      0.4   819.1    0.00       0    999.0  212.2
 264   23:20   34.4    93    0.4   282      0.4   819.1    0.00       0    999.0  212.2
 264   23:30   34.3    94    0.4   275      0.4   819.1    0.00       0    999.0  212.2
 264   23:40   34.1    94    0.4   274      0.4   819.1    0.00       0    999.0  212.2
 264   23:50   33.8    94    0.4   277      0.4   819.1    0.00       0    999.0  212.2
 265    0:00   33.7    94    0.4   288      0.4   819.2    0.00       0    999.0  212.2
 265    0:10   33.6    94    0.4   288      0.4   819.2    0.00       0    999.0  212.2
 265    0:20   33.6    95    0.4   273      0.4   819.2    0.00       0    999.0  212.2
 265    0:30   33.4    95    0.4   271      0.4   819.2    0.00       0    999.0  212.2
 265    0:40   33.1    95    0.4   271      0.4   819.2    0.00       0    999.0  212.2
 265    0:50   32.9    95    0.4   289      0.4   819.2    0.00       0    999.0  212.2
 265    1:00   32.9    95    0.4   268      0.4   819.1    0.00       0    999.0  212.2
 265    1:10   32.8    95    0.4   252      0.4   819.1    0.00       0    999.0  212.2
 265    1:20   32.7    95    0.4   255      0.4   819.1    0.00       0    999.0  212.2
 265    1:30   32.6    96    0.4   262      0.4   819.0    0.00       0    999.0  212.2
 265    1:40   32.4    96    0.4   262      0.4   818.9    0.00       0    999.0  212.2
 265    1:50   32.2    96    0.4   271      0.4   818.9    0.00       0    999.0  212.2
 265    2:00   32.2    96    0.4   274      0.4   818.8    0.00       0    999.0  212.2
 265    2:10   32.1    96    0.4   271      0.4   818.7    0.00       0    999.0  212.2
 265    2:20   32.0    96    0.4   270      0.4   818.7    0.00       0    999.0  212.2
 265    2:30   31.8    96    0.4   281      0.4   818.7    0.00       0    999.0  212.2
 265    2:40   31.8    96    0.4   262      0.4   818.7    0.00       0    999.0  212.2
 265    2:50   31.8    96    0.4   288      0.4   818.7    0.00       0    999.0  212.2
 265    3:00   31.9    96    0.4   265      0.4   818.7    0.00       0    999.0  212.2
 265    3:10   31.8    96    0.4   266      0.4   818.7    0.00       0    999.0  212.2
 265    3:20   31.7    96    0.4   272      0.4   818.7    0.00       0    999.0  212.2
 265    3:30   31.7    97    0.4   282      0.4   818.7    0.00       0    999.0  212.2
 265    3:40   31.6    97    0.4   276      0.4   818.7    0.00       0    999.0  212.2
 265    3:50   31.3    96    0.4   261      0.4   818.7    0.00       0    999.0  212.2
 265    4:00   31.3    97    0.4   274      0.4   818.6    0.00       0    999.0  212.2
 265    4:10   31.3    97    0.4   304      0.4   818.7    0.00       0    999.0  212.2
 265    4:20   31.3    97    0.4   270      0.4   818.7    0.00       0    999.0  212.2
 265    4:30   31.3    97    0.4   280      0.4   818.7    0.00       0    999.0  212.2
 265    4:40   31.3    97    0.4   271      0.4   818.7    0.00       0    999.0  212.2
 265    4:50   31.2    97    0.4   279      0.4   818.7    0.00       0    999.0  212.2
 265    5:00   31.0    97    0.4   268      0.4   818.8    0.00       0    999.0  212.2
 265    5:10   31.1    97    0.4   244      0.4   818.9    0.00       0    999.0  212.2
 265    5:20   31.0    97    0.4   246      0.4   818.9    0.00       0    999.0  212.2
 265    5:30   31.0    97    0.4   267      0.4   818.9    0.00       0    999.0  212.2
 265    5:40   31.0    97    0.4   269      0.4   819.0    0.00       0    999.0  212.2
 265    5:50   31.0    97    0.4   262      0.4   819.0    0.00       0    999.0  212.2
 265    6:00   31.3    97    0.4   264      0.4   819.2    0.00       0    999.0  212.2
 265    6:10   31.7    97    0.4   263      0.4   819.2    0.00       8    999.0  212.2

Return to Donner Trail Elementary graphs page.


Western Regional Climate Center,wrcc@dri.edu